BIKF/KEF METAR and TAF weather

Enter ICAO airport designator
Station Type Date Time Source
BIKF METAR 2023/02/05 13:30 UTC NOAA

BIKF 051330Z 19034G44KT 5000 -DZ BR OVC008 08/08 Q0990


Station Type Date Time Source
BIKF Decoded METAR 2023/02/05 13:30 UTC NOAA

Keflavikurflugvollur, Iceland (BIKF) 63-58N 022-36W 54M
Feb 05, 2023 - 08:30 AM EST / 2023.02.05 1330 UTC
Wind: from the S (190 degrees) at 39 MPH (34 KT) gusting to 51 MPH (44 KT):0
Visibility: 3 mile(s):0
Sky conditions: overcast
Weather: light drizzle; mist
Temperature: 46 F (8 C)
Dew Point: 46 F (8 C)
Relative Humidity: 100%
Pressure (altimeter): 29.23 in. Hg (0990 hPa)
ob: BIKF 051330Z 19034G44KT 5000 -DZ BR OVC008 08/08 Q0990
cycle: 13

Station Type Date Time Source
BIKF TAF 2023/02/05 12:01 UTC NOAA

TAF BIKF 051059Z 0512/0612 18033KT 4000 -DZRA BKN012 TX08/0515Z TN01/0609Z
TEMPO 0512/0517 18036G48KT 1400 RADZ BR BKN004
BECMG 0517/0519 9999 BKN022
TEMPO 0517/0602 18038G55KT SHRA BKN010TCU
BECMG 0602/0604 24023KT
TEMPO 0602/0610 24028G40KT 1400 SHSNGS BKN004CB

Example: see airport list